Time;durP1;ratioP1;P1;durP2;ratioP2;P2;SDS_P1;SDS_P2;PMS_P1;PMS_P2;Temp;Humidity;BMP_temperature;BMP_pressure;BME280_temperature;BME280_humidity;BME280_pressure;Samples;Min_cycle;Max_cycle;Signal;HPM_P1;HPM_P2
2023/08/07 00:00:23;;;;;;;;;1.00;1.00;;;;;13.71;84.83;99309.72;4977815;28;8951;-57
2023/08/07 00:02:51;;;;;;;;;0.00;0.00;;;;;13.69;84.52;99317.06;4977621;28;8869;-57
2023/08/07 00:05:19;;;;;;;;;0.25;0.25;;;;;13.65;84.75;99308.50;4977488;28;8824;-57
2023/08/07 00:07:46;;;;;;;;;1.50;1.00;;;;;13.64;84.47;99311.34;4977857;28;8848;-57
2023/08/07 00:10:14;;;;;;;;;1.00;1.00;;;;;13.62;84.51;99305.31;4977732;28;8832;-57
2023/08/07 00:12:42;;;;;;;;;0.00;0.00;;;;;13.60;84.77;99301.97;4977539;28;8809;-59
2023/08/07 00:15:11;;;;;;;;;0.00;0.00;;;;;13.58;85.28;99301.28;4977918;28;8828;-57
2023/08/07 00:17:38;;;;;;;;;0.00;0.00;;;;;13.56;84.67;99293.41;4977201;28;8825;-57
2023/08/07 00:20:06;;;;;;;;;0.00;0.00;;;;;13.57;84.97;99299.56;4977614;28;9515;-57
2023/08/07 00:22:34;;;;;;;;;0.00;0.00;;;;;13.57;85.00;99300.44;4977469;28;8860;-58
2023/08/07 00:25:01;;;;;;;;;0.00;0.00;;;;;13.56;84.68;99304.09;4977658;28;8886;-58
2023/08/07 00:27:29;;;;;;;;;0.00;0.00;;;;;13.56;85.04;99300.56;4977421;28;8833;-57
2023/08/07 00:29:57;;;;;;;;;0.00;0.00;;;;;13.56;84.45;99293.41;4976617;28;8797;-57
2023/08/07 00:32:25;;;;;;;;;0.00;0.00;;;;;13.56;84.87;99295.22;4976937;28;8797;-57
2023/08/07 00:34:52;;;;;;;;;0.00;0.00;;;;;13.54;85.06;99295.41;4977674;28;8829;-58
2023/08/07 00:37:20;;;;;;;;;0.00;0.00;;;;;13.55;85.04;99298.91;4977333;28;8821;-59
2023/08/07 00:39:48;;;;;;;;;0.00;0.00;;;;;13.53;84.59;99287.53;4976442;28;8812;-57
2023/08/07 00:42:16;;;;;;;;;0.00;0.00;;;;;13.53;84.27;99292.88;4976801;28;8908;-58
2023/08/07 00:44:43;;;;;;;;;0.00;0.00;;;;;13.54;85.03;99294.53;4976943;28;8832;-58
2023/08/07 00:47:11;;;;;;;;;0.00;0.00;;;;;13.55;84.56;99290.88;4977440;28;8852;-59
2023/08/07 00:49:38;;;;;;;;;0.00;0.00;;;;;13.56;84.68;99284.53;4976804;28;8840;-58
2023/08/07 00:52:07;;;;;;;;;0.00;0.00;;;;;13.56;85.33;99292.53;4977479;28;8831;-58
2023/08/07 00:54:34;;;;;;;;;0.00;0.00;;;;;13.57;84.55;99291.53;4977194;28;8817;-58
2023/08/07 00:57:02;;;;;;;;;0.40;0.40;;;;;13.56;84.80;99290.72;4977105;28;8813;-58
2023/08/07 00:59:29;;;;;;;;;0.00;0.00;;;;;13.57;84.93;99296.91;4980800;28;8812;-58
2023/08/07 01:01:57;;;;;;;;;0.00;0.00;;;;;13.58;84.61;99295.94;4981548;28;8816;-58
2023/08/07 01:04:27;;;;;;;;;0.00;0.00;;;;;13.58;84.70;99298.59;4981138;28;8848;-58
2023/08/07 01:06:54;;;;;;;;;0.00;0.00;;;;;13.58;84.79;99295.94;4981366;28;8825;-58
2023/08/07 01:09:22;;;;;;;;;0.00;0.00;;;;;13.59;85.07;99293.06;4980219;28;8828;-57
2023/08/07 01:11:50;;;;;;;;;0.00;0.00;;;;;13.60;84.82;99293.94;4980204;28;8852;-58
2023/08/07 01:14:17;;;;;;;;;0.25;0.25;;;;;13.62;85.21;99294.59;4981264;28;8831;-58
2023/08/07 01:16:45;;;;;;;;;0.00;0.00;;;;;13.63;85.03;99302.47;4980782;28;8841;-58
2023/08/07 01:19:13;;;;;;;;;1.00;1.00;;;;;13.66;84.46;99304.84;4980542;28;8809;-59
2023/08/07 01:21:40;;;;;;;;;0.00;0.00;;;;;13.66;84.74;99312.03;4980953;28;8832;-60
2023/08/07 01:24:11;;;;;;;;;0.00;0.00;;;;;13.67;84.48;99306.50;4980977;28;8832;-58
2023/08/07 01:26:39;;;;;;;;;0.00;0.00;;;;;13.70;84.83;99305.34;4980641;28;8867;-58
2023/08/07 01:29:07;;;;;;;;;0.40;0.40;;;;;13.69;84.38;99304.53;4980110;28;8935;-58
2023/08/07 01:31:34;;;;;;;;;1.00;1.00;;;;;13.71;85.07;99309.72;4980842;28;8816;-59
2023/08/07 01:34:03;;;;;;;;;0.00;0.00;;;;;13.71;85.12;99313.25;4980979;28;8851;-58
2023/08/07 01:36:30;;;;;;;;;1.00;1.00;;;;;13.72;84.89;99314.06;4980394;28;8833;-58
2023/08/07 01:38:58;;;;;;;;;0.00;0.00;;;;;13.71;84.80;99312.38;4979869;28;8821;-58
2023/08/07 01:41:26;;;;;;;;;1.00;0.75;;;;;13.72;84.96;99319.41;4980355;28;8809;-57
2023/08/07 01:43:54;;;;;;;;;1.00;1.00;;;;;13.69;84.65;99317.91;4980493;28;8824;-58
2023/08/07 01:46:21;;;;;;;;;1.00;1.00;;;;;13.70;84.72;99321.41;4980229;28;8833;-58
2023/08/07 01:48:49;;;;;;;;;0.50;0.50;;;;;13.70;85.00;99321.41;4979650;28;8824;-58
2023/08/07 01:51:16;;;;;;;;;0.50;0.00;;;;;13.67;84.70;99322.56;4980515;28;8824;-59
2023/08/07 01:53:45;;;;;;;;;1.60;0.80;;;;;13.66;85.26;99320.88;4980570;28;9491;-57
2023/08/07 01:56:12;;;;;;;;;2.00;2.00;;;;;13.64;85.59;99330.06;4980136;28;8843;-58
2023/08/07 01:58:40;;;;;;;;;2.50;1.00;;;;;13.65;85.15;99331.72;4979252;28;8825;-58
2023/08/07 02:01:07;;;;;;;;;1.00;1.00;;;;;13.64;85.19;99330.91;4979581;28;8817;-58
2023/08/07 02:03:35;;;;;;;;;0.50;0.50;;;;;13.63;84.70;99325.72;4980187;28;9491;-58
2023/08/07 02:06:03;;;;;;;;;3.00;3.00;;;;;13.63;85.04;99341.75;4980455;28;9533;-58
2023/08/07 02:08:30;;;;;;;;;1.00;1.00;;;;;13.62;84.92;99350.78;4979712;28;8808;-58
2023/08/07 02:11:01;;;;;;;;;0.00;0.00;;;;;13.60;85.68;99350.13;4979907;28;8916;-57
2023/08/07 02:13:28;;;;;;;;;1.40;1.40;;;;;13.58;84.84;99354.78;4979999;28;8879;-59
2023/08/07 02:15:56;;;;;;;;;0.40;0.40;;;;;13.56;84.96;99343.38;4979812;28;8837;-60
2023/08/07 02:18:25;;;;;;;;;0.00;0.00;;;;;13.54;85.09;99356.06;4979234;28;8819;-58
2023/08/07 02:20:52;;;;;;;;;1.50;1.00;;;;;13.54;84.99;99348.06;4979683;28;8926;-59
2023/08/07 02:23:20;;;;;;;;;1.00;1.00;;;;;13.54;85.11;99356.94;4979104;28;8849;-59
2023/08/07 02:25:48;;;;;;;;;1.00;0.00;;;;;13.52;85.17;99353.53;4979483;28;8965;-57
2023/08/07 02:28:15;;;;;;;;;3.00;3.00;;;;;13.52;84.98;99352.72;4979828;28;8879;-57
2023/08/07 02:30:44;;;;;;;;;3.00;3.00;;;;;13.50;85.67;99352.03;4979477;28;8859;-60
2023/08/07 02:33:12;;;;;;;;;1.50;1.50;;;;;13.51;85.08;99359.06;4979590;28;8848;-58
2023/08/07 02:35:39;;;;;;;;;3.25;1.50;;;;;13.51;85.48;99343.03;4979378;28;8831;-60
2023/08/07 02:38:07;;;;;;;;;3.50;3.00;;;;;13.47;85.50;99347.84;4979373;28;8809;-57
2023/08/07 02:40:34;;;;;;;;;2.50;2.50;;;;;13.45;85.41;99347.13;4979422;28;8848;-59
2023/08/07 02:43:03;;;;;;;;;3.00;3.00;;;;;13.47;85.47;99355.00;4979398;28;8836;-57
2023/08/07 02:45:30;;;;;;;;;3.00;3.00;;;;;13.46;85.22;99361.38;4979233;28;8829;-59
2023/08/07 02:47:58;;;;;;;;;2.00;2.00;;;;;13.44;85.11;99348.13;4979221;28;8954;-57
2023/08/07 02:50:27;;;;;;;;;3.25;3.25;;;;;13.45;85.90;99349.00;4979226;28;8821;-57
2023/08/07 02:52:55;;;;;;;;;1.50;1.50;;;;;13.45;85.79;99349.81;4978700;28;8835;-59
2023/08/07 02:55:23;;;;;;;;;1.50;1.50;;;;;13.45;85.60;99349.00;4979232;28;8844;-59
2023/08/07 02:57:50;;;;;;;;;3.00;2.00;;;;;13.47;85.05;99347.00;4978863;28;8832;-59
2023/08/07 03:00:18;;;;;;;;;1.50;1.50;;;;;13.47;85.43;99345.16;4979469;28;8828;-60
2023/08/07 03:02:46;;;;;;;;;3.25;3.25;;;;;13.48;85.21;99349.53;4978615;28;8847;-57
2023/08/07 03:05:14;;;;;;;;;1.00;1.00;;;;;13.47;85.44;99350.53;4978683;28;8919;-59
2023/08/07 03:07:42;;;;;;;;;3.50;2.50;;;;;13.47;85.41;99337.16;4978613;28;8828;-59
2023/08/07 03:10:10;;;;;;;;;2.50;2.50;;;;;13.48;85.03;99354.00;4978714;28;8829;-60
2023/08/07 03:12:38;;;;;;;;;3.50;3.00;;;;;13.48;85.20;99346.00;4978374;28;8817;-58
2023/08/07 03:15:06;;;;;;;;;0.00;0.00;;;;;13.47;85.41;99347.00;4978527;28;8852;-58
2023/08/07 03:17:33;;;;;;;;;4.00;3.00;;;;;13.47;85.24;99347.84;4978700;28;8851;-57
2023/08/07 03:20:01;;;;;;;;;3.00;1.00;;;;;13.49;85.43;99350.34;4978047;28;8875;-58
2023/08/07 03:22:28;;;;;;;;;4.00;3.00;;;;;13.48;85.70;99341.50;4978356;28;9557;-57
2023/08/07 03:24:56;;;;;;;;;1.00;1.00;;;;;13.50;85.00;99349.34;4978394;28;8831;-59
2023/08/07 03:27:24;;;;;;;;;3.00;3.00;;;;;13.49;85.68;99350.34;4978718;28;9563;-58
2023/08/07 03:29:51;;;;;;;;;3.00;3.00;;;;;13.49;85.29;99347.66;4978328;28;8824;-59
2023/08/07 03:32:19;;;;;;;;;3.00;3.00;;;;;13.50;85.65;99357.38;4978059;28;8825;-57
2023/08/07 03:34:46;;;;;;;;;1.00;1.00;;;;;13.52;84.88;99350.06;4978690;28;8835;-59
2023/08/07 03:37:14;;;;;;;;;2.00;1.50;;;;;13.52;85.59;99350.88;4978169;28;8832;-57
2023/08/07 03:39:43;;;;;;;;;0.80;0.80;;;;;13.53;85.44;99354.41;4978178;28;8843;-57
2023/08/07 03:42:11;;;;;;;;;0.00;0.00;;;;;13.53;85.53;99363.25;4978388;28;8840;-60
2023/08/07 03:44:38;;;;;;;;;3.00;3.00;;;;;13.54;85.62;99364.09;4977994;28;8821;-58
2023/08/07 03:47:06;;;;;;;;;3.00;1.00;;;;;13.54;85.14;99358.75;4978500;28;8955;-58
2023/08/07 03:49:33;;;;;;;;;1.00;1.00;;;;;13.54;84.96;99370.31;4977784;28;8864;-57
2023/08/07 03:52:01;;;;;;;;;1.00;1.00;;;;;13.56;85.20;99370.13;4977728;28;8868;-60
2023/08/07 03:54:29;;;;;;;;;1.00;1.00;;;;;13.57;84.62;99369.13;4977709;28;9559;-57
2023/08/07 03:56:56;;;;;;;;;0.67;0.67;;;;;13.57;85.24;99359.28;4978035;28;8855;-58
2023/08/07 03:59:24;;;;;;;;;0.00;0.00;;;;;13.57;85.55;99367.31;4977672;28;8927;-58
2023/08/07 04:01:52;;;;;;;;;0.75;0.75;;;;;13.57;85.03;99367.31;4977750;28;8825;-59
2023/08/07 04:04:20;;;;;;;;;0.00;0.00;;;;;13.58;85.12;99373.50;4977475;28;8872;-57
2023/08/07 04:06:47;;;;;;;;;0.75;0.00;;;;;13.59;85.12;99372.50;4977848;28;9594;-58
2023/08/07 04:09:16;;;;;;;;;0.75;0.75;;;;;13.59;85.06;99376.00;4977618;28;9486;-57
2023/08/07 04:11:44;;;;;;;;;1.40;1.40;;;;;13.60;84.88;99379.53;4977509;28;8836;-57
2023/08/07 04:14:12;;;;;;;;;3.00;0.50;;;;;13.60;85.13;99374.19;4977718;28;8825;-56
2023/08/07 04:16:39;;;;;;;;;0.50;0.50;;;;;13.59;84.91;99384.03;4977300;28;8843;-57
2023/08/07 04:19:07;;;;;;;;;0.75;0.75;;;;;13.59;85.64;99377.88;4977142;28;8809;-58
2023/08/07 04:21:35;;;;;;;;;0.50;0.50;;;;;13.58;85.46;99385.03;4977733;28;8835;-57
2023/08/07 04:24:07;;;;;;;;;0.00;0.00;;;;;13.59;85.26;99383.22;4976473;28;8809;-59
2023/08/07 04:26:35;;;;;;;;;0.40;0.00;;;;;13.60;84.93;99379.53;4977493;28;8979;-57
2023/08/07 04:29:03;;;;;;;;;0.50;0.00;;;;;13.61;85.42;99386.56;4976969;28;8843;-58
2023/08/07 04:31:31;;;;;;;;;1.00;1.00;;;;;13.62;85.30;99386.44;4976808;28;8812;-57
2023/08/07 04:33:58;;;;;;;;;1.00;0.75;;;;;13.64;84.88;99387.09;4977262;28;8903;-57
2023/08/07 04:36:26;;;;;;;;;1.00;1.00;;;;;13.65;84.94;99395.94;4976573;28;8833;-58
2023/08/07 04:38:55;;;;;;;;;3.00;3.00;;;;;13.67;85.30;99394.00;4976216;28;8820;-58
2023/08/07 04:41:22;;;;;;;;;4.00;4.00;;;;;13.67;84.54;99402.00;4976508;28;8832;-59
2023/08/07 04:43:50;;;;;;;;;3.75;3.00;;;;;13.66;84.79;99397.66;4976281;28;8851;-57
2023/08/07 04:46:18;;;;;;;;;3.00;3.00;;;;;13.63;85.10;99398.81;4976326;28;8856;-60
2023/08/07 04:48:47;;;;;;;;;5.50;3.00;;;;;13.63;85.11;99400.63;4976264;28;8918;-57
2023/08/07 04:51:15;;;;;;;;;4.00;3.75;;;;;13.59;84.99;99399.28;4975907;28;8824;-58
2023/08/07 04:53:43;;;;;;;;;3.25;3.00;;;;;13.56;85.03;99405.75;4976520;28;8816;-57
2023/08/07 04:56:10;;;;;;;;;7.00;5.00;;;;;13.56;85.07;99397.75;4975463;28;8944;-60
2023/08/07 04:58:38;;;;;;;;;6.00;6.00;;;;;13.53;85.38;99406.06;4976060;28;8968;-57
2023/08/07 05:01:06;;;;;;;;;4.00;4.00;;;;;13.53;85.32;99398.03;4975694;28;8866;-58
2023/08/07 05:03:34;;;;;;;;;7.50;6.75;;;;;13.53;85.55;99407.91;4975627;28;8833;-58
2023/08/07 05:06:02;;;;;;;;;5.00;4.00;;;;;13.51;85.32;99400.03;4975304;28;8942;-58
2023/08/07 05:08:30;;;;;;;;;5.75;5.75;;;;;13.50;85.61;99409.03;4976283;28;8864;-58
2023/08/07 05:10:58;;;;;;;;;9.00;7.00;;;;;13.49;85.58;99409.19;4975489;28;8816;-60
2023/08/07 05:13:26;;;;;;;;;3.50;3.50;;;;;13.47;85.43;99409.38;4975650;28;8918;-59
2023/08/07 05:15:54;;;;;;;;;6.00;4.00;;;;;13.46;85.25;99409.50;4975947;28;9565;-57
2023/08/07 05:18:21;;;;;;;;;4.00;4.00;;;;;13.46;85.79;99414.84;4975886;28;8844;-58
2023/08/07 05:20:49;;;;;;;;;6.00;4.50;;;;;13.46;85.29;99410.38;4975607;28;8848;-58
2023/08/07 05:23:16;;;;;;;;;9.25;8.00;;;;;13.45;85.86;99423.88;4974562;28;8805;-59
2023/08/07 05:25:44;;;;;;;;;7.00;7.00;;;;;13.43;85.47;99412.50;4974986;28;8840;-58
2023/08/07 05:28:12;;;;;;;;;6.25;6.00;;;;;13.42;85.50;99414.31;4975480;28;9561;-57
2023/08/07 05:30:39;;;;;;;;;6.75;6.75;;;;;13.43;85.43;99416.00;4974098;28;8847;-58
2023/08/07 05:33:07;;;;;;;;;9.75;8.75;;;;;13.44;85.63;99428.38;4973471;28;8828;-58
2023/08/07 05:35:35;;;;;;;;;9.00;9.00;;;;;13.44;85.42;99422.19;4973710;28;9211;-57
2023/08/07 05:38:03;;;;;;;;;7.75;6.50;;;;;13.45;85.35;99419.34;4974670;28;8844;-60
2023/08/07 05:40:30;;;;;;;;;9.25;9.00;;;;;13.45;85.23;99418.53;4974561;28;8979;-58
2023/08/07 05:42:58;;;;;;;;;8.00;6.75;;;;;13.45;85.54;99416.69;4974311;28;8841;-59
2023/08/07 05:45:26;;;;;;;;;8.50;7.50;;;;;13.44;85.53;99422.19;4976237;28;8854;-59
2023/08/07 05:47:53;;;;;;;;;6.25;6.25;;;;;13.44;85.32;99427.56;4976034;28;8854;-59
2023/08/07 05:50:21;;;;;;;;;7.00;7.00;;;;;13.43;85.54;99431.22;4976005;28;8855;-59
2023/08/07 05:52:49;;;;;;;;;9.00;6.50;;;;;13.44;85.89;99424.88;4976463;28;8852;-59
2023/08/07 05:55:16;;;;;;;;;6.50;5.00;;;;;13.44;85.29;99427.56;4976993;28;8841;-58
2023/08/07 05:57:44;;;;;;;;;4.00;4.00;;;;;13.44;85.24;99432.91;4976683;28;8829;-59
2023/08/07 06:00:16;;;;;;;;;6.50;6.50;;;;;13.44;85.79;99438.25;4976793;28;8860;-58
2023/08/07 06:02:44;;;;;;;;;3.50;3.25;;;;;13.45;85.38;99426.56;4977547;28;8840;-59
2023/08/07 06:05:13;;;;;;;;;7.00;5.50;;;;;13.46;85.16;99429.09;4976815;28;8867;-58
2023/08/07 06:07:41;;;;;;;;;3.00;3.00;;;;;13.46;85.40;99425.56;4977613;28;8828;-58
2023/08/07 06:10:09;;;;;;;;;3.00;1.50;;;;;13.46;85.77;99433.59;4976903;28;8892;-58
2023/08/07 06:12:38;;;;;;;;;3.50;3.00;;;;;13.43;85.62;99428.56;4976325;28;8948;-58
2023/08/07 06:15:05;;;;;;;;;3.25;2.50;;;;;13.43;85.48;99433.91;4975569;28;8844;-58
2023/08/07 06:17:33;;;;;;;;;3.00;3.00;;;;;13.41;85.67;99433.19;4975684;28;8853;-58
2023/08/07 06:20:01;;;;;;;;;3.00;1.00;;;;;13.41;85.58;99435.88;4975761;28;8848;-58
2023/08/07 06:22:29;;;;;;;;;1.00;1.00;;;;;13.41;85.44;99443.88;4974872;28;9515;-58
2023/08/07 06:24:57;;;;;;;;;0.00;0.00;;;;;13.39;85.71;99452.09;4975833;28;8864;-58
2023/08/07 06:27:25;;;;;;;;;3.25;1.00;;;;;13.40;85.92;99448.41;4977060;28;8836;-58
2023/08/07 06:29:52;;;;;;;;;0.25;0.25;;;;;13.41;85.84;99449.22;4976342;28;8914;-58
2023/08/07 06:32:20;;;;;;;;;0.25;0.25;;;;;13.40;85.50;99444.88;4976853;28;8836;-58
2023/08/07 06:34:48;;;;;;;;;1.00;1.00;;;;;13.40;85.29;99444.88;4975496;28;8841;-59
2023/08/07 06:37:16;;;;;;;;;1.00;1.00;;;;;13.41;85.34;99444.75;4976055;28;8968;-58
2023/08/07 06:39:46;;;;;;;;;1.50;1.00;;;;;13.44;85.29;99454.31;4976502;28;9546;-60
2023/08/07 06:42:16;;;;;;;;;1.00;0.75;;;;;13.44;85.16;99455.13;4976637;28;9673;-58
2023/08/07 06:44:43;;;;;;;;;1.00;1.00;;;;;13.43;85.15;99457.97;4976628;28;8870;-59
2023/08/07 06:47:11;;;;;;;;;1.00;0.75;;;;;13.42;85.33;99457.13;4976310;28;8853;-58
2023/08/07 06:49:39;;;;;;;;;0.00;0.00;;;;;13.41;85.76;99460.78;4976992;28;8844;-59
2023/08/07 06:52:07;;;;;;;;;1.00;0.00;;;;;13.43;85.40;99463.31;4974949;28;8832;-59
2023/08/07 06:54:34;;;;;;;;;0.00;0.00;;;;;13.43;85.64;99468.66;4975343;28;8859;-58
2023/08/07 06:57:02;;;;;;;;;0.00;0.00;;;;;13.44;85.55;99473.03;4975158;28;8856;-59
2023/08/07 06:59:30;;;;;;;;;3.25;2.00;;;;;13.45;85.28;99461.34;4976463;28;8865;-58
2023/08/07 07:01:58;;;;;;;;;3.00;1.00;;;;;13.45;85.24;99472.03;4976150;28;8836;-58
2023/08/07 07:04:26;;;;;;;;;3.50;3.50;;;;;13.46;86.14;99471.03;4975848;28;8833;-59
2023/08/07 07:06:54;;;;;;;;;4.00;3.50;;;;;13.48;85.59;99479.75;4976410;28;8840;-59
2023/08/07 07:09:21;;;;;;;;;4.00;4.00;;;;;13.48;85.40;99475.25;4976209;28;8894;-58
2023/08/07 07:11:49;;;;;;;;;4.00;3.75;;;;;13.50;85.31;99483.09;4975602;28;8926;-59
2023/08/07 07:14:17;;;;;;;;;4.50;4.50;;;;;13.52;85.57;99483.81;4975833;28;8832;-58
2023/08/07 07:16:45;;;;;;;;;4.50;4.00;;;;;13.54;85.31;99490.69;4975867;28;8853;-59
2023/08/07 07:19:13;;;;;;;;;4.00;4.00;;;;;13.58;85.93;99494.72;4975606;28;8864;-58
2023/08/07 07:21:42;;;;;;;;;7.00;6.75;;;;;13.59;85.15;99495.59;4976538;28;8874;-58
2023/08/07 07:24:10;;;;;;;;;4.00;3.50;;;;;13.61;85.60;99504.28;4975704;28;8848;-58
2023/08/07 07:26:38;;;;;;;;;5.25;5.00;;;;;13.64;85.57;99509.34;4975755;28;8954;-59
2023/08/07 07:29:06;;;;;;;;;9.25;8.00;;;;;13.68;85.84;99500.03;4976051;28;8912;-57
2023/08/07 07:31:34;;;;;;;;;4.00;4.00;;;;;13.73;85.28;99505.75;4975723;28;8845;-58
2023/08/07 07:34:02;;;;;;;;;2.75;2.75;;;;;13.76;85.26;99514.34;4975362;28;8832;-58
2023/08/07 07:36:30;;;;;;;;;5.00;4.00;;;;;13.77;85.10;99505.31;4974922;28;8836;-59
2023/08/07 07:38:58;;;;;;;;;7.00;6.00;;;;;13.80;84.90;99515.69;4975733;28;9617;-58
2023/08/07 07:41:27;;;;;;;;;6.50;4.50;;;;;13.82;85.32;99518.22;4975745;28;9212;-59
2023/08/07 07:43:56;;;;;;;;;6.00;4.50;;;;;13.85;84.59;99515.22;4975694;28;9503;-59
2023/08/07 07:46:24;;;;;;;;;5.00;3.00;;;;;13.89;84.55;99520.13;4976058;28;8868;-59
2023/08/07 07:48:52;;;;;;;;;3.00;3.00;;;;;13.92;85.23;99517.16;4976553;28;8856;-60
2023/08/07 07:51:21;;;;;;;;;6.75;6.00;;;;;13.96;84.64;99531.09;4975983;28;8861;-57
2023/08/07 07:53:49;;;;;;;;;4.00;3.50;;;;;13.96;84.70;99528.41;4975844;28;8843;-59
2023/08/07 07:56:37;;;;;;;;;3.50;3.00;;;;;13.95;84.60;99526.69;4976115;28;8840;-59
2023/08/07 07:59:05;;;;;;;;;3.00;3.00;;;;;13.96;84.77;99533.75;4976123;28;8848;-59
2023/08/07 08:01:36;;;;;;;;;6.00;4.00;;;;;13.98;84.90;99527.22;4976213;28;8983;-57
2023/08/07 08:04:04;;;;;;;;;4.00;3.00;;;;;13.98;84.42;99532.59;4975957;28;8894;-58
2023/08/07 08:06:32;;;;;;;;;3.00;3.00;;;;;14.00;85.01;99533.28;4975558;28;8840;-59
2023/08/07 08:09:04;;;;;;;;;3.50;3.50;;;;;14.00;84.92;99540.47;4976018;28;8828;-58
2023/08/07 08:11:32;;;;;;;;;3.00;1.50;;;;;14.05;85.10;99551.56;4975783;28;8839;-59
2023/08/07 08:13:59;;;;;;;;;3.50;3.00;;;;;14.09;84.63;99543.06;4974991;28;8879;-59
2023/08/07 08:16:27;;;;;;;;;3.50;3.00;;;;;14.12;84.49;99553.47;4975239;28;8931;-59
2023/08/07 08:18:55;;;;;;;;;1.50;1.00;;;;;14.15;84.86;99557.69;4974374;28;8859;-58
2023/08/07 08:21:23;;;;;;;;;1.40;1.40;;;;;14.16;84.79;99570.06;4974164;28;8963;-59
2023/08/07 08:23:51;;;;;;;;;4.00;3.00;;;;;14.16;84.60;99570.06;4974091;28;8845;-58
2023/08/07 08:26:19;;;;;;;;;3.00;3.00;;;;;14.16;84.40;99572.75;4973663;28;8848;-58
2023/08/07 08:28:47;;;;;;;;;1.00;1.00;;;;;14.17;84.02;99567.25;4973030;28;8852;-58
2023/08/07 08:31:15;;;;;;;;;3.00;3.00;;;;;14.20;84.73;99566.13;4973580;28;8863;-58
2023/08/07 08:33:43;;;;;;;;;3.00;3.00;;;;;14.25;84.54;99564.66;4973764;28;8840;-58
2023/08/07 08:36:11;;;;;;;;;0.00;0.00;;;;;14.31;84.59;99571.25;4974485;28;8840;-59
2023/08/07 08:38:39;;;;;;;;;1.00;1.00;;;;;14.34;84.21;99574.44;4974033;28;8832;-58
2023/08/07 08:41:07;;;;;;;;;3.00;3.00;;;;;14.37;84.03;99573.31;4973753;28;8914;-58
2023/08/07 08:43:35;;;;;;;;;4.00;3.00;;;;;14.34;84.35;99584.34;4973896;28;8931;-59
2023/08/07 08:46:03;;;;;;;;;3.00;3.00;;;;;14.33;84.25;99583.50;4973806;28;8987;-58
2023/08/07 08:48:31;;;;;;;;;3.00;3.00;;;;;14.36;84.25;99595.75;4975016;28;9509;-57
2023/08/07 08:50:59;;;;;;;;;4.00;4.00;;;;;14.41;84.28;99590.78;4974168;28;8824;-58
2023/08/07 08:53:27;;;;;;;;;3.00;3.00;;;;;14.51;84.75;99603.06;4972566;28;8849;-58
2023/08/07 08:55:55;;;;;;;;;1.80;1.80;;;;;14.57;84.40;99606.97;4972799;28;8855;-58
2023/08/07 08:58:23;;;;;;;;;3.40;3.40;;;;;14.59;84.09;99604.97;4972559;28;8847;-58
2023/08/07 09:00:51;;;;;;;;;0.00;0.00;;;;;14.64;84.09;99602.69;4973856;28;9626;-60
2023/08/07 09:03:20;;;;;;;;;2.60;2.60;;;;;14.77;83.73;99608.44;4973218;28;8828;-59
2023/08/07 09:05:48;;;;;;;;;1.80;1.00;;;;;14.85;83.39;99617.41;4973553;28;8840;-58
2023/08/07 09:08:16;;;;;;;;;1.00;1.00;;;;;14.90;83.64;99619.59;4974268;28;8942;-58
2023/08/07 09:10:44;;;;;;;;;0.20;0.20;;;;;14.93;83.49;99625.50;4974334;28;8847;-58
2023/08/07 09:13:12;;;;;;;;;1.00;1.00;;;;;14.99;83.66;99624.03;4974262;28;8837;-57
2023/08/07 09:15:40;;;;;;;;;0.00;0.00;;;;;15.13;83.21;99628.81;4973828;28;8931;-59
2023/08/07 09:18:10;;;;;;;;;3.20;1.00;;;;;15.29;82.80;99631.59;4973557;28;8829;-57
2023/08/07 09:20:39;;;;;;;;;1.40;1.00;;;;;15.42;83.19;99629.34;4977957;28;8836;-59
2023/08/07 09:23:07;;;;;;;;;0.80;0.80;;;;;15.48;82.32;99626.84;4977593;28;9621;-57
2023/08/07 09:25:35;;;;;;;;;1.00;1.00;;;;;15.47;82.44;99641.28;4978412;28;9569;-58
2023/08/07 09:28:04;;;;;;;;;1.00;0.00;;;;;15.45;82.12;99645.97;4978522;28;8840;-58
2023/08/07 09:30:32;;;;;;;;;0.00;0.00;;;;;15.49;82.66;99651.88;4978341;28;8899;-58
2023/08/07 09:33:00;;;;;;;;;1.00;0.00;;;;;15.55;82.48;99651.22;4979115;28;8859;-60
2023/08/07 09:35:28;;;;;;;;;1.00;1.00;;;;;15.60;82.44;99648.88;4979366;28;9480;-59
2023/08/07 09:37:56;;;;;;;;;0.00;0.00;;;;;15.76;82.07;99651.66;4978622;28;8832;-59
2023/08/07 09:40:25;;;;;;;;;2.60;2.60;;;;;15.93;81.43;99648.03;4979427;28;9610;-57
2023/08/07 09:42:53;;;;;;;;;1.00;1.00;;;;;16.04;81.14;99662.00;4977861;28;9504;-57
2023/08/07 09:45:21;;;;;;;;;2.20;2.20;;;;;16.14;81.03;99661.88;4978824;28;8848;-59
2023/08/07 09:47:49;;;;;;;;;1.00;1.00;;;;;16.19;80.48;99671.09;4977651;28;8849;-59
2023/08/07 09:50:18;;;;;;;;;1.00;0.20;;;;;16.34;80.90;99659.53;4978231;28;8836;-57
2023/08/07 09:52:46;;;;;;;;;1.40;1.00;;;;;16.50;80.69;99666.84;4977984;28;8931;-58
2023/08/07 09:55:15;;;;;;;;;3.40;3.00;;;;;16.60;79.93;99667.50;4976975;28;8930;-59
2023/08/07 09:57:43;;;;;;;;;3.60;3.00;;;;;16.73;79.87;99671.41;4977186;28;8860;-57
2023/08/07 10:00:15;;;;;;;;;3.00;3.00;;;;;16.77;80.24;99672.72;4977484;28;8836;-60
2023/08/07 10:02:43;;;;;;;;;3.80;3.20;;;;;16.82;80.01;99675.78;4975375;28;8845;-59
2023/08/07 10:05:11;;;;;;;;;6.00;4.00;;;;;16.91;79.80;99680.13;4976977;28;8845;-59
2023/08/07 10:07:39;;;;;;;;;1.40;1.40;;;;;17.08;79.51;99665.66;4976619;28;8934;-57
2023/08/07 10:10:07;;;;;;;;;4.40;3.20;;;;;17.26;79.19;99669.00;4976109;28;8848;-59
2023/08/07 10:12:36;;;;;;;;;3.00;3.00;;;;;17.17;78.75;99678.09;4976908;28;8841;-60
2023/08/07 10:15:04;;;;;;;;;3.80;3.80;;;;;17.00;79.77;99681.81;4976731;28;8864;-60
2023/08/07 10:17:32;;;;;;;;;3.60;3.20;;;;;17.34;79.30;99681.59;4976663;28;8849;-59
2023/08/07 10:20:00;;;;;;;;;3.80;3.20;;;;;18.19;78.23;99676.25;4976828;28;8879;-58
2023/08/07 10:22:28;;;;;;;;;3.60;3.60;;;;;18.94;76.23;99686.22;4976578;28;9569;-60
2023/08/07 10:24:56;;;;;;;;;3.20;3.00;;;;;19.08;75.93;99680.03;4976261;28;8954;-60
2023/08/07 10:27:24;;;;;;;;;4.80;3.60;;;;;18.98;76.07;99683.00;4976264;28;8848;-59
2023/08/07 10:29:52;;;;;;;;;3.00;3.00;;;;;18.76;75.88;99681.13;4975121;28;8840;-59
2023/08/07 10:32:20;;;;;;;;;3.80;3.80;;;;;18.60;77.09;99681.25;4974886;28;8922;-57
2023/08/07 10:34:48;;;;;;;;;1.00;1.00;;;;;18.40;77.84;99681.91;4974929;28;8914;-60
2023/08/07 10:37:16;;;;;;;;;3.20;3.00;;;;;18.18;77.86;99693.47;4975989;28;8940;-58
2023/08/07 10:39:44;;;;;;;;;1.40;1.40;;;;;17.76;78.66;99709.16;4976719;28;8926;-59
2023/08/07 10:42:12;;;;;;;;;3.40;3.00;;;;;17.20;80.44;99696.59;4977032;28;8859;-59
2023/08/07 10:44:40;;;;;;;;;2.20;1.80;;;;;16.84;81.35;99702.47;4976858;28;8867;-60
2023/08/07 10:47:08;;;;;;;;;3.80;3.40;;;;;16.71;81.87;99708.34;4976574;28;8876;-60
2023/08/07 10:49:36;;;;;;;;;3.00;3.00;;;;;16.67;81.57;99712.41;4977226;28;8841;-58
2023/08/07 10:52:04;;;;;;;;;2.60;1.00;;;;;16.70;81.91;99709.38;4977514;28;9503;-59
2023/08/07 10:54:31;;;;;;;;;1.80;0.60;;;;;16.73;81.85;99721.66;4976434;28;8836;-58
2023/08/07 10:57:00;;;;;;;;;3.00;1.00;;;;;16.98;81.31;99712.56;4974349;28;9558;-57
2023/08/07 10:59:28;;;;;;;;;3.00;3.00;;;;;17.69;79.54;99708.16;4974720;28;8907;-58
2023/08/07 11:01:56;;;;;;;;;1.80;1.80;;;;;18.52;77.42;99712.88;4975676;28;8926;-58
2023/08/07 11:04:26;;;;;;;;;3.60;3.00;;;;;19.24;75.81;99707.78;4975906;28;9557;-59
2023/08/07 11:06:54;;;;;;;;;0.00;0.00;;;;;19.93;73.89;99699.28;4975562;28;8852;-58
2023/08/07 11:09:22;;;;;;;;;2.60;1.80;;;;;20.65;72.20;99698.34;4975045;28;8837;-58
2023/08/07 11:11:53;;;;;;;;;3.20;1.40;;;;;21.34;71.31;99701.09;4975770;28;8836;-59
2023/08/07 11:14:23;;;;;;;;;5.20;4.00;;;;;21.82;69.11;99708.38;4976363;28;8845;-58
2023/08/07 11:16:52;;;;;;;;;1.40;1.40;;;;;22.12;69.65;99700.78;4976304;28;9011;-57
2023/08/07 11:19:19;;;;;;;;;4.00;2.60;;;;;22.59;69.18;99693.50;4975945;28;8889;-57
2023/08/07 11:21:47;;;;;;;;;2.00;1.40;;;;;22.74;68.51;99705.03;4975609;28;8902;-59
2023/08/07 11:24:15;;;;;;;;;1.00;1.00;;;;;22.25;69.88;99701.69;4975324;28;8836;-58
2023/08/07 11:26:43;;;;;;;;;5.00;1.80;;;;;21.76;71.27;99711.00;4975675;28;8844;-58
2023/08/07 11:29:11;;;;;;;;;2.00;2.00;;;;;21.95;70.53;99705.69;4974714;28;8911;-60
2023/08/07 11:31:39;;;;;;;;;2.00;2.00;;;;;21.86;71.57;99711.50;4974844;28;8829;-59
2023/08/07 11:34:07;;;;;;;;;2.00;1.00;;;;;22.30;69.66;99703.81;4974669;28;8865;-58
2023/08/07 11:36:35;;;;;;;;;2.00;1.80;;;;;22.49;69.59;99713.94;4974225;28;8868;-60
2023/08/07 11:39:03;;;;;;;;;3.20;2.00;;;;;22.71;69.10;99700.03;4974464;28;9537;-58
2023/08/07 11:41:31;;;;;;;;;1.40;1.40;;;;;23.14;67.70;99701.31;4974418;28;8891;-58
2023/08/07 11:44:00;;;;;;;;;2.00;2.00;;;;;23.44;67.08;99709.94;4973702;28;8841;-58